sensor_id;sensor_type;location;lat;lon;timestamp;pressure;altitude;pressure_sealevel;temperature;humidity
13767;BME280;47980;48.794;9.176;2023-07-29T00:00:48;97825.34;;;18.54;100.00
13767;BME280;47980;48.794;9.176;2023-07-29T00:03:21;97818.47;;;18.53;100.00
13767;BME280;47980;48.794;9.176;2023-07-29T00:05:53;97821.50;;;18.59;100.00
13767;BME280;47980;48.794;9.176;2023-07-29T00:08:24;97821.16;;;18.60;100.00
13767;BME280;47980;48.794;9.176;2023-07-29T00:10:56;97809.22;;;18.65;100.00
13767;BME280;47980;48.794;9.176;2023-07-29T00:13:28;97802.72;;;18.76;100.00
13767;BME280;47980;48.794;9.176;2023-07-29T00:15:59;97806.56;;;18.72;100.00
13767;BME280;47980;48.794;9.176;2023-07-29T00:18:32;97807.34;;;18.72;100.00
13767;BME280;47980;48.794;9.176;2023-07-29T00:21:03;97801.56;;;18.67;100.00
13767;BME280;47980;48.794;9.176;2023-07-29T00:23:35;97802.69;;;18.66;100.00
13767;BME280;47980;48.794;9.176;2023-07-29T00:26:06;97801.94;;;18.65;100.00
13767;BME280;47980;48.794;9.176;2023-07-29T00:28:38;97797.34;;;18.59;100.00
13767;BME280;47980;48.794;9.176;2023-07-29T00:31:09;97806.53;;;18.68;100.00
13767;BME280;47980;48.794;9.176;2023-07-29T00:33:42;97805.41;;;18.76;100.00
13767;BME280;47980;48.794;9.176;2023-07-29T00:36:14;97803.47;;;18.77;100.00
13767;BME280;47980;48.794;9.176;2023-07-29T00:38:45;97804.28;;;18.81;100.00
13767;BME280;47980;48.794;9.176;2023-07-29T00:41:17;97805.81;;;18.82;100.00
13767;BME280;47980;48.794;9.176;2023-07-29T00:43:48;97796.97;;;18.82;100.00
13767;BME280;47980;48.794;9.176;2023-07-29T00:46:20;97790.44;;;18.83;100.00
13767;BME280;47980;48.794;9.176;2023-07-29T00:48:55;97790.84;;;18.81;100.00
13767;BME280;47980;48.794;9.176;2023-07-29T00:51:26;97791.59;;;18.78;100.00
13767;BME280;47980;48.794;9.176;2023-07-29T00:53:58;97793.88;;;18.83;100.00
13767;BME280;47980;48.794;9.176;2023-07-29T00:56:30;97802.72;;;18.76;100.00
13767;BME280;47980;48.794;9.176;2023-07-29T00:59:03;97795.81;;;18.79;100.00
13767;BME280;47980;48.794;9.176;2023-07-29T01:01:35;97788.16;;;18.81;100.00
13767;BME280;47980;48.794;9.176;2023-07-29T01:04:09;97796.19;;;18.88;100.00
13767;BME280;47980;48.794;9.176;2023-07-29T01:06:48;97794.63;;;18.94;100.00
13767;BME280;47980;48.794;9.176;2023-07-29T01:09:25;97794.25;;;18.96;100.00
13767;BME280;47980;48.794;9.176;2023-07-29T01:12:07;97788.47;;;19.01;100.00
13767;BME280;47980;48.794;9.176;2023-07-29T01:14:44;97781.19;;;18.94;100.00
13767;BME280;47980;48.794;9.176;2023-07-29T01:17:22;97781.22;;;18.84;100.00
13767;BME280;47980;48.794;9.176;2023-07-29T01:20:00;97778.94;;;18.75;100.00
13767;BME280;47980;48.794;9.176;2023-07-29T01:22:34;97782.38;;;18.68;100.00
13767;BME280;47980;48.794;9.176;2023-07-29T01:25:07;97791.59;;;18.74;100.00
13767;BME280;47980;48.794;9.176;2023-07-29T01:27:39;97783.13;;;18.69;100.00
13767;BME280;47980;48.794;9.176;2023-07-29T01:30:11;97778.16;;;18.74;100.00
13767;BME280;47980;48.794;9.176;2023-07-29T01:32:45;97776.25;;;18.71;100.00
13767;BME280;47980;48.794;9.176;2023-07-29T01:35:24;97776.22;;;18.82;100.00
13767;BME280;47980;48.794;9.176;2023-07-29T01:38:01;97774.28;;;18.90;100.00
13767;BME280;47980;48.794;9.176;2023-07-29T01:40:51;97780.06;;;18.95;100.00
13767;BME280;47980;48.794;9.176;2023-07-29T01:43:24;97776.19;;;18.96;100.00
13767;BME280;47980;48.794;9.176;2023-07-29T01:45:56;97770.41;;;19.02;100.00
13767;BME280;47980;48.794;9.176;2023-07-29T01:48:28;97776.19;;;19.00;100.00
13767;BME280;47980;48.794;9.176;2023-07-29T01:51:00;97775.03;;;19.01;100.00
13767;BME280;47980;48.794;9.176;2023-07-29T01:53:32;97772.31;;;19.12;100.00
13767;BME280;47980;48.794;9.176;2023-07-29T01:56:05;97762.69;;;19.18;100.00
13767;BME280;47980;48.794;9.176;2023-07-29T01:58:36;97771.53;;;19.15;100.00
13767;BME280;47980;48.794;9.176;2023-07-29T02:01:08;97759.25;;;19.17;100.00
13767;BME280;47980;48.794;9.176;2023-07-29T02:03:40;97755.00;;;19.16;100.00
13767;BME280;47980;48.794;9.176;2023-07-29T02:06:11;97751.97;;;19.07;100.00
13767;BME280;47980;48.794;9.176;2023-07-29T02:08:42;97751.25;;;18.96;100.00
13767;BME280;47980;48.794;9.176;2023-07-29T02:11:15;97750.47;;;18.95;100.00
13767;BME280;47980;48.794;9.176;2023-07-29T02:13:47;97754.31;;;18.94;100.00
13767;BME280;47980;48.794;9.176;2023-07-29T02:16:18;97754.31;;;18.94;100.00
13767;BME280;47980;48.794;9.176;2023-07-29T02:18:50;97747.41;;;18.97;100.00
13767;BME280;47980;48.794;9.176;2023-07-29T02:21:21;97750.09;;;18.90;100.00
13767;BME280;47980;48.794;9.176;2023-07-29T02:23:53;97739.75;;;18.88;100.00
13767;BME280;47980;48.794;9.176;2023-07-29T02:26:25;97744.34;;;18.84;100.00
13767;BME280;47980;48.794;9.176;2023-07-29T02:28:57;97737.09;;;18.74;100.00
13767;BME280;47980;48.794;9.176;2023-07-29T02:31:28;97744.38;;;18.63;100.00
13767;BME280;47980;48.794;9.176;2023-07-29T02:34:00;97740.13;;;18.62;100.00
13767;BME280;47980;48.794;9.176;2023-07-29T02:36:31;97740.13;;;18.62;100.00
13767;BME280;47980;48.794;9.176;2023-07-29T02:39:03;97750.13;;;18.61;100.00
13767;BME280;47980;48.794;9.176;2023-07-29T02:41:36;97738.97;;;18.66;100.00
13767;BME280;47980;48.794;9.176;2023-07-29T02:44:07;97742.84;;;18.76;100.00
13767;BME280;47980;48.794;9.176;2023-07-29T02:46:39;97737.09;;;18.74;100.00
13767;BME280;47980;48.794;9.176;2023-07-29T02:49:10;97736.28;;;18.77;100.00
13767;BME280;47980;48.794;9.176;2023-07-29T02:51:42;97738.97;;;18.81;100.00
13767;BME280;47980;48.794;9.176;2023-07-29T02:54:13;97735.16;;;18.74;100.00
13767;BME280;47980;48.794;9.176;2023-07-29T02:56:46;97741.66;;;18.77;100.00
13767;BME280;47980;48.794;9.176;2023-07-29T02:59:18;97738.63;;;18.75;100.00
13767;BME280;47980;48.794;9.176;2023-07-29T03:01:50;97737.84;;;18.78;100.00
13767;BME280;47980;48.794;9.176;2023-07-29T03:04:21;97729.38;;;18.80;100.00
13767;BME280;47980;48.794;9.176;2023-07-29T03:06:53;97722.47;;;18.82;100.00
13767;BME280;47980;48.794;9.176;2023-07-29T03:09:25;97720.16;;;18.81;100.00
13767;BME280;47980;48.794;9.176;2023-07-29T03:11:57;97721.34;;;18.76;100.00
13767;BME280;47980;48.794;9.176;2023-07-29T03:14:29;97724.41;;;18.74;100.00
13767;BME280;47980;48.794;9.176;2023-07-29T03:17:02;97715.19;;;18.72;100.00
13767;BME280;47980;48.794;9.176;2023-07-29T03:19:34;97719.41;;;18.62;100.00
13767;BME280;47980;48.794;9.176;2023-07-29T03:22:05;97720.97;;;18.56;100.00
13767;BME280;47980;48.794;9.176;2023-07-29T03:24:37;97704.84;;;18.67;100.00
13767;BME280;47980;48.794;9.176;2023-07-29T03:27:10;97701.00;;;18.64;100.00
13767;BME280;47980;48.794;9.176;2023-07-29T03:29:41;97701.41;;;18.56;100.00
13767;BME280;47980;48.794;9.176;2023-07-29T03:32:13;97702.16;;;18.60;100.00
13767;BME280;47980;48.794;9.176;2023-07-29T03:34:44;97705.59;;;18.78;100.00
13767;BME280;47980;48.794;9.176;2023-07-29T03:37:16;97702.47;;;18.94;100.00
13767;BME280;47980;48.794;9.176;2023-07-29T03:39:47;97703.56;;;19.14;100.00
13767;BME280;47980;48.794;9.176;2023-07-29T03:42:20;97703.94;;;19.06;100.00
13767;BME280;47980;48.794;9.176;2023-07-29T03:44:52;97698.59;;;19.02;100.00
13767;BME280;47980;48.794;9.176;2023-07-29T03:47:23;97700.88;;;19.07;100.00
13767;BME280;47980;48.794;9.176;2023-07-29T03:49:54;97705.50;;;19.07;100.00
13767;BME280;47980;48.794;9.176;2023-07-29T03:52:26;97704.25;;;19.29;100.00
13767;BME280;47980;48.794;9.176;2023-07-29T03:54:57;97712.41;;;19.08;100.00
13767;BME280;47980;48.794;9.176;2023-07-29T03:57:30;97712.44;;;19.00;100.00
13767;BME280;47980;48.794;9.176;2023-07-29T04:00:02;97717.38;;;19.09;100.00
13767;BME280;47980;48.794;9.176;2023-07-29T04:02:34;97716.19;;;19.21;100.00
13767;BME280;47980;48.794;9.176;2023-07-29T04:05:08;97716.94;;;19.25;100.00
13767;BME280;47980;48.794;9.176;2023-07-29T04:07:40;97718.88;;;19.28;100.00
13767;BME280;47980;48.794;9.176;2023-07-29T04:10:12;97709.28;;;19.16;100.00
13767;BME280;47980;48.794;9.176;2023-07-29T04:12:45;97703.16;;;19.12;100.00
13767;BME280;47980;48.794;9.176;2023-07-29T04:15:17;97707.41;;;19.06;100.00
13767;BME280;47980;48.794;9.176;2023-07-29T04:17:48;97705.13;;;18.97;100.00
13767;BME280;47980;48.794;9.176;2023-07-29T04:20:20;97705.09;;;19.08;100.00
13767;BME280;47980;48.794;9.176;2023-07-29T04:22:51;97711.28;;;18.98;100.00
13767;BME280;47980;48.794;9.176;2023-07-29T04:25:23;97703.22;;;18.98;100.00
13767;BME280;47980;48.794;9.176;2023-07-29T04:27:56;97703.63;;;18.96;100.00
13767;BME280;47980;48.794;9.176;2023-07-29T04:30:28;97714.75;;;18.91;100.00
13767;BME280;47980;48.794;9.176;2023-07-29T04:33:00;97719.00;;;18.89;100.00
13767;BME280;47980;48.794;9.176;2023-07-29T04:35:31;97714.75;;;18.88;100.00
13767;BME280;47980;48.794;9.176;2023-07-29T04:38:02;97710.97;;;18.82;100.00
13767;BME280;47980;48.794;9.176;2023-07-29T04:40:34;97704.44;;;18.83;100.00
13767;BME280;47980;48.794;9.176;2023-07-29T04:43:07;97714.41;;;18.79;100.00
13767;BME280;47980;48.794;9.176;2023-07-29T04:45:42;97727.47;;;18.76;100.00
13767;BME280;47980;48.794;9.176;2023-07-29T04:48:14;97743.22;;;18.78;100.00
13767;BME280;47980;48.794;9.176;2023-07-29T04:50:45;97735.94;;;18.71;100.00
13767;BME280;47980;48.794;9.176;2023-07-29T04:53:16;97742.06;;;18.79;100.00
13767;BME280;47980;48.794;9.176;2023-07-29T04:55:48;97738.22;;;18.84;100.00
13767;BME280;47980;48.794;9.176;2023-07-29T04:58:21;97755.50;;;18.79;100.00
13767;BME280;47980;48.794;9.176;2023-07-29T05:00:52;97735.50;;;18.87;100.00
13767;BME280;47980;48.794;9.176;2023-07-29T05:03:24;97732.03;;;18.90;100.00
13767;BME280;47980;48.794;9.176;2023-07-29T05:05:55;97739.75;;;18.92;100.00
13767;BME280;47980;48.794;9.176;2023-07-29T05:08:27;97732.44;;;18.96;100.00
13767;BME280;47980;48.794;9.176;2023-07-29T05:10:59;97725.50;;;18.91;100.00
13767;BME280;47980;48.794;9.176;2023-07-29T05:13:32;97718.19;;;18.99;100.00
13767;BME280;47980;48.794;9.176;2023-07-29T05:16:03;97707.44;;;18.99;100.00
13767;BME280;47980;48.794;9.176;2023-07-29T05:18:35;97712.00;;;19.09;100.00
13767;BME280;47980;48.794;9.176;2023-07-29T05:21:06;97714.66;;;19.16;100.00
13767;BME280;47980;48.794;9.176;2023-07-29T05:23:38;97707.72;;;19.26;100.00
13767;BME280;47980;48.794;9.176;2023-07-29T05:26:10;97707.28;;;19.31;100.00
13767;BME280;47980;48.794;9.176;2023-07-29T05:28:42;97708.47;;;19.30;100.00
13767;BME280;47980;48.794;9.176;2023-07-29T05:31:14;97714.28;;;19.21;100.00
13767;BME280;47980;48.794;9.176;2023-07-29T05:33:46;97724.25;;;19.24;100.00
13767;BME280;47980;48.794;9.176;2023-07-29T05:36:17;97725.38;;;19.31;100.00
13767;BME280;47980;48.794;9.176;2023-07-29T05:38:49;97706.50;;;19.38;100.00
13767;BME280;47980;48.794;9.176;2023-07-29T05:41:21;97720.25;;;19.54;100.00
13767;BME280;47980;48.794;9.176;2023-07-29T05:43:54;97717.13;;;19.70;100.00
13767;BME280;47980;48.794;9.176;2023-07-29T05:46:25;97716.31;;;19.77;100.00
13767;BME280;47980;48.794;9.176;2023-07-29T05:48:57;97718.59;;;19.78;100.00
13767;BME280;47980;48.794;9.176;2023-07-29T05:51:28;97714.56;;;20.04;100.00
13767;BME280;47980;48.794;9.176;2023-07-29T05:54:00;97714.22;;;19.99;100.00
13767;BME280;47980;48.794;9.176;2023-07-29T05:56:31;97708.22;;;20.25;100.00
13767;BME280;47980;48.794;9.176;2023-07-29T05:59:04;97701.59;;;20.33;100.00
13767;BME280;47980;48.794;9.176;2023-07-29T06:01:35;97706.50;;;20.46;100.00
13767;BME280;47980;48.794;9.176;2023-07-29T06:04:07;97702.19;;;20.59;100.00
13767;BME280;47980;48.794;9.176;2023-07-29T06:06:38;97699.91;;;20.54;100.00
13767;BME280;47980;48.794;9.176;2023-07-29T06:09:10;97703.03;;;20.86;100.00
13767;BME280;47980;48.794;9.176;2023-07-29T06:11:42;97695.13;;;21.06;100.00
13767;BME280;47980;48.794;9.176;2023-07-29T06:14:16;97699.03;;;21.32;100.00
13767;BME280;47980;48.794;9.176;2023-07-29T06:16:49;97698.00;;;21.53;100.00
13767;BME280;47980;48.794;9.176;2023-07-29T06:19:21;97696.25;;;21.67;100.00
13767;BME280;47980;48.794;9.176;2023-07-29T06:21:55;97702.09;;;21.88;100.00
13767;BME280;47980;48.794;9.176;2023-07-29T06:24:28;97701.03;;;21.82;100.00
13767;BME280;47980;48.794;9.176;2023-07-29T06:27:00;97701.91;;;21.76;100.00
13767;BME280;47980;48.794;9.176;2023-07-29T06:29:35;97696.34;;;21.59;100.00
13767;BME280;47980;48.794;9.176;2023-07-29T06:32:07;97708.16;;;21.42;100.00
13767;BME280;47980;48.794;9.176;2023-07-29T06:34:40;97708.91;;;21.46;100.00
13767;BME280;47980;48.794;9.176;2023-07-29T06:37:12;97711.47;;;21.23;100.00
13767;BME280;47980;48.794;9.176;2023-07-29T06:39:45;97719.59;;;20.88;100.00
13767;BME280;47980;48.794;9.176;2023-07-29T06:42:18;97717.41;;;20.76;100.00
13767;BME280;47980;48.794;9.176;2023-07-29T06:44:53;97723.59;;;20.73;100.00
13767;BME280;47980;48.794;9.176;2023-07-29T06:47:25;97722.81;;;20.73;100.00
13767;BME280;47980;48.794;9.176;2023-07-29T06:49:58;97716.53;;;20.86;100.00
13767;BME280;47980;48.794;9.176;2023-07-29T06:52:30;97711.28;;;20.72;100.00
13767;BME280;47980;48.794;9.176;2023-07-29T06:55:04;97725.13;;;20.74;100.00
13767;BME280;47980;48.794;9.176;2023-07-29T06:57:36;97726.75;;;20.64;100.00
13767;BME280;47980;48.794;9.176;2023-07-29T07:00:12;97732.56;;;20.63;100.00
13767;BME280;47980;48.794;9.176;2023-07-29T07:02:44;97745.41;;;20.44;100.00
13767;BME280;47980;48.794;9.176;2023-07-29T07:05:17;97742.38;;;20.39;100.00
13767;BME280;47980;48.794;9.176;2023-07-29T07:07:50;97746.59;;;20.40;100.00
13767;BME280;47980;48.794;9.176;2023-07-29T07:10:23;97752.94;;;20.19;100.00
13767;BME280;47980;48.794;9.176;2023-07-29T07:12:56;97757.88;;;20.28;100.00
13767;BME280;47980;48.794;9.176;2023-07-29T07:15:30;97752.81;;;20.33;100.00
13767;BME280;47980;48.794;9.176;2023-07-29T07:18:03;97752.81;;;20.33;100.00
13767;BME280;47980;48.794;9.176;2023-07-29T07:20:35;97759.78;;;20.27;100.00
13767;BME280;47980;48.794;9.176;2023-07-29T07:23:08;97760.16;;;20.29;100.00
13767;BME280;47980;48.794;9.176;2023-07-29T07:25:42;97759.25;;;20.47;100.00
13767;BME280;47980;48.794;9.176;2023-07-29T07:28:14;97751.91;;;20.51;100.00
13767;BME280;47980;48.794;9.176;2023-07-29T07:30:48;97746.13;;;20.56;100.00
13767;BME280;47980;48.794;9.176;2023-07-29T07:33:19;97759.28;;;20.43;100.00
13767;BME280;47980;48.794;9.176;2023-07-29T07:35:51;97759.69;;;20.83;100.00
13767;BME280;47980;48.794;9.176;2023-07-29T07:38:22;97760.84;;;20.85;100.00
13767;BME280;47980;48.794;9.176;2023-07-29T07:40:54;97750.63;;;21.04;100.00
13767;BME280;47980;48.794;9.176;2023-07-29T07:43:26;97758.81;;;21.27;100.00
13767;BME280;47980;48.794;9.176;2023-07-29T07:45:59;97735.44;;;21.17;100.00
13767;BME280;47980;48.794;9.176;2023-07-29T07:48:31;97751.44;;;21.35;100.00
13767;BME280;47980;48.794;9.176;2023-07-29T07:51:10;97757.25;;;21.60;100.00
13767;BME280;47980;48.794;9.176;2023-07-29T07:53:41;97748.78;;;21.62;100.00
13767;BME280;47980;48.794;9.176;2023-07-29T07:56:12;97749.78;;;21.45;100.00
13767;BME280;47980;48.794;9.176;2023-07-29T07:58:45;97749.34;;;21.50;100.00
13767;BME280;47980;48.794;9.176;2023-07-29T08:01:18;97742.19;;;21.36;100.00
13767;BME280;47980;48.794;9.176;2023-07-29T08:03:49;97740.91;;;21.44;100.00
13767;BME280;47980;48.794;9.176;2023-07-29T08:06:21;97744.38;;;21.75;100.00
13767;BME280;47980;48.794;9.176;2023-07-29T08:08:53;97740.81;;;22.05;100.00
13767;BME280;47980;48.794;9.176;2023-07-29T08:11:25;97755.31;;;21.92;100.00
13767;BME280;47980;48.794;9.176;2023-07-29T08:13:58;97766.41;;;21.97;100.00
13767;BME280;47980;48.794;9.176;2023-07-29T08:16:31;97771.94;;;22.17;100.00
13767;BME280;47980;48.794;9.176;2023-07-29T08:19:02;97767.06;;;22.32;100.00
13767;BME280;47980;48.794;9.176;2023-07-29T08:21:34;97775.06;;;22.39;100.00
13767;BME280;47980;48.794;9.176;2023-07-29T08:24:05;97777.72;;;22.86;99.01
13767;BME280;47980;48.794;9.176;2023-07-29T08:26:37;97778.88;;;22.65;98.27
13767;BME280;47980;48.794;9.176;2023-07-29T08:29:09;97777.19;;;22.95;96.46
13767;BME280;47980;48.794;9.176;2023-07-29T08:31:42;97781.31;;;22.79;97.53
13767;BME280;47980;48.794;9.176;2023-07-29T08:34:13;97776.22;;;22.85;97.36
13767;BME280;47980;48.794;9.176;2023-07-29T08:36:45;97780.03;;;22.88;97.25
13767;BME280;47980;48.794;9.176;2023-07-29T08:39:16;97768.97;;;22.78;98.64
13767;BME280;47980;48.794;9.176;2023-07-29T08:41:53;97777.19;;;22.95;98.15
13767;BME280;47980;48.794;9.176;2023-07-29T08:44:28;97768.81;;;23.09;98.50
13767;BME280;47980;48.794;9.176;2023-07-29T08:47:03;97770.56;;;23.39;94.95
13767;BME280;47980;48.794;9.176;2023-07-29T08:49:35;97777.34;;;23.67;94.61
13767;BME280;47980;48.794;9.176;2023-07-29T08:52:08;97765.09;;;23.79;91.13
13767;BME280;47980;48.794;9.176;2023-07-29T08:54:40;97767.28;;;23.68;95.00
13767;BME280;47980;48.794;9.176;2023-07-29T08:57:13;97770.44;;;23.63;96.01
13767;BME280;47980;48.794;9.176;2023-07-29T08:59:45;97772.41;;;23.82;94.84
13767;BME280;47980;48.794;9.176;2023-07-29T09:02:19;97781.56;;;24.54;89.36
13767;BME280;47980;48.794;9.176;2023-07-29T09:04:50;97781.25;;;24.52;91.47
13767;BME280;47980;48.794;9.176;2023-07-29T09:07:22;97773.94;;;24.65;91.89
13767;BME280;47980;48.794;9.176;2023-07-29T09:09:53;97779.16;;;24.88;89.28
13767;BME280;47980;48.794;9.176;2023-07-29T09:12:25;97767.13;;;25.18;82.51
13767;BME280;47980;48.794;9.176;2023-07-29T09:14:56;97771.09;;;24.85;85.86
13767;BME280;47980;48.794;9.176;2023-07-29T09:17:32;97757.75;;;25.19;86.94
13767;BME280;47980;48.794;9.176;2023-07-29T09:20:05;97757.56;;;24.97;86.11
13767;BME280;47980;48.794;9.176;2023-07-29T09:22:37;97752.41;;;25.58;84.14
13767;BME280;47980;48.794;9.176;2023-07-29T09:25:08;97756.41;;;25.40;80.85
13767;BME280;47980;48.794;9.176;2023-07-29T09:27:40;97756.69;;;25.17;79.08
13767;BME280;47980;48.794;9.176;2023-07-29T09:30:15;97755.44;;;25.47;81.95
13767;BME280;47980;48.794;9.176;2023-07-29T09:32:54;97756.09;;;25.38;81.14
13767;BME280;47980;48.794;9.176;2023-07-29T09:35:27;97752.44;;;25.83;80.39
13767;BME280;47980;48.794;9.176;2023-07-29T09:37:59;97750.69;;;26.15;74.65
13767;BME280;47980;48.794;9.176;2023-07-29T09:40:35;97743.75;;;25.88;75.91
13767;BME280;47980;48.794;9.176;2023-07-29T09:43:09;97752.41;;;25.70;74.64
13767;BME280;47980;48.794;9.176;2023-07-29T09:45:41;97762.94;;;25.56;77.83
13767;BME280;47980;48.794;9.176;2023-07-29T09:48:14;97764.31;;;25.89;75.42
13767;BME280;47980;48.794;9.176;2023-07-29T09:50:47;97754.53;;;25.25;76.51
13767;BME280;47980;48.794;9.176;2023-07-29T09:53:19;97744.59;;;25.73;75.48
13767;BME280;47980;48.794;9.176;2023-07-29T09:55:53;97764.03;;;25.58;75.12
13767;BME280;47980;48.794;9.176;2023-07-29T09:58:26;97747.88;;;25.93;73.17
13767;BME280;47980;48.794;9.176;2023-07-29T10:00:58;97754.41;;;25.83;72.29
13767;BME280;47980;48.794;9.176;2023-07-29T10:03:31;97744.97;;;26.82;71.06
13767;BME280;47980;48.794;9.176;2023-07-29T10:06:04;97738.00;;;26.81;67.20
13767;BME280;47980;48.794;9.176;2023-07-29T10:08:36;97729.00;;;27.38;66.63
13767;BME280;47980;48.794;9.176;2023-07-29T10:11:10;97729.72;;;27.29;66.25
13767;BME280;47980;48.794;9.176;2023-07-29T10:13:42;97728.56;;;26.51;69.21
13767;BME280;47980;48.794;9.176;2023-07-29T10:16:14;97729.66;;;27.51;63.80
13767;BME280;47980;48.794;9.176;2023-07-29T10:18:48;97737.16;;;26.72;64.93
13767;BME280;47980;48.794;9.176;2023-07-29T10:21:21;97725.97;;;26.70;66.15
13767;BME280;47980;48.794;9.176;2023-07-29T10:23:57;97739.81;;;25.64;67.86
13767;BME280;47980;48.794;9.176;2023-07-29T10:26:31;97748.34;;;25.24;71.25
13767;BME280;47980;48.794;9.176;2023-07-29T10:29:04;97751.19;;;24.75;72.78
13767;BME280;47980;48.794;9.176;2023-07-29T10:31:39;97761.16;;;24.49;76.02
13767;BME280;47980;48.794;9.176;2023-07-29T10:34:13;97752.50;;;24.21;79.53
13767;BME280;47980;48.794;9.176;2023-07-29T10:36:45;97766.22;;;23.98;82.45
13767;BME280;47980;48.794;9.176;2023-07-29T10:39:18;97763.75;;;24.36;83.48
13767;BME280;47980;48.794;9.176;2023-07-29T10:41:57;97755.47;;;24.89;79.49
13767;BME280;47980;48.794;9.176;2023-07-29T10:44:51;97753.78;;;24.66;78.38
13767;BME280;47980;48.794;9.176;2023-07-29T10:47:25;97764.66;;;24.79;76.09
13767;BME280;47980;48.794;9.176;2023-07-29T10:49:59;97767.63;;;24.84;77.74
13767;BME280;47980;48.794;9.176;2023-07-29T10:52:37;97764.31;;;24.47;77.58
13767;BME280;47980;48.794;9.176;2023-07-29T10:55:24;97760.31;;;24.19;77.77
13767;BME280;47980;48.794;9.176;2023-07-29T10:58:07;97759.53;;;25.26;72.87
13767;BME280;47980;48.794;9.176;2023-07-29T11:00:41;97748.97;;;25.83;70.75
13767;BME280;47980;48.794;9.176;2023-07-29T11:03:14;97744.19;;;25.87;68.68
13767;BME280;47980;48.794;9.176;2023-07-29T11:05:49;97745.13;;;26.19;69.09
13767;BME280;47980;48.794;9.176;2023-07-29T11:08:27;97749.50;;;26.16;67.58
13767;BME280;47980;48.794;9.176;2023-07-29T11:11:03;97761.38;;;25.84;67.35
13767;BME280;47980;48.794;9.176;2023-07-29T11:13:36;97762.25;;;25.93;68.04
13767;BME280;47980;48.794;9.176;2023-07-29T11:16:10;97754.38;;;25.70;70.18
13767;BME280;47980;48.794;9.176;2023-07-29T11:18:42;97749.19;;;25.88;67.89
13767;BME280;47980;48.794;9.176;2023-07-29T11:21:16;97750.00;;;26.36;65.68
13767;BME280;47980;48.794;9.176;2023-07-29T11:23:48;97767.75;;;25.77;67.16
13767;BME280;47980;48.794;9.176;2023-07-29T11:26:20;97747.78;;;25.97;67.08
13767;BME280;47980;48.794;9.176;2023-07-29T11:28:51;97744.50;;;26.02;65.41
13767;BME280;47980;48.794;9.176;2023-07-29T11:31:23;97755.81;;;26.00;67.43
13767;BME280;47980;48.794;9.176;2023-07-29T11:34:09;97749.78;;;26.44;65.75
13767;BME280;47980;48.794;9.176;2023-07-29T11:36:45;97757.56;;;25.81;66.30
13767;BME280;47980;48.794;9.176;2023-07-29T11:39:16;97744.44;;;26.40;66.05
13767;BME280;47980;48.794;9.176;2023-07-29T11:41:48;97737.66;;;26.57;63.90
13767;BME280;47980;48.794;9.176;2023-07-29T11:44:19;97736.25;;;26.53;64.66
13767;BME280;47980;48.794;9.176;2023-07-29T11:46:51;97734.94;;;25.84;63.93
13767;BME280;47980;48.794;9.176;2023-07-29T11:49:22;97750.84;;;26.59;62.77
13767;BME280;47980;48.794;9.176;2023-07-29T11:51:56;97744.44;;;26.75;61.93
13767;BME280;47980;48.794;9.176;2023-07-29T11:54:28;97739.94;;;26.59;62.47
13767;BME280;47980;48.794;9.176;2023-07-29T11:56:59;97746.06;;;27.07;62.97
13767;BME280;47980;48.794;9.176;2023-07-29T11:59:32;97737.66;;;27.14;61.62
13767;BME280;47980;48.794;9.176;2023-07-29T12:02:06;97745.63;;;26.52;61.76
13767;BME280;47980;48.794;9.176;2023-07-29T12:04:41;97735.38;;;26.43;61.60
13767;BME280;47980;48.794;9.176;2023-07-29T12:07:17;97729.84;;;26.47;60.76
13767;BME280;47980;48.794;9.176;2023-07-29T12:09:50;97731.94;;;26.99;62.81
13767;BME280;47980;48.794;9.176;2023-07-29T12:12:22;97723.78;;;26.30;63.31
13767;BME280;47980;48.794;9.176;2023-07-29T12:14:54;97704.88;;;27.05;60.96
13767;BME280;47980;48.794;9.176;2023-07-29T12:17:26;97718.34;;;27.93;57.24
13767;BME280;47980;48.794;9.176;2023-07-29T12:19:59;97711.72;;;27.31;60.11
13767;BME280;47980;48.794;9.176;2023-07-29T12:22:32;97716.81;;;27.82;62.31
13767;BME280;47980;48.794;9.176;2023-07-29T12:25:04;97713.69;;;28.21;59.33
13767;BME280;47980;48.794;9.176;2023-07-29T12:27:36;97705.47;;;28.02;55.82
13767;BME280;47980;48.794;9.176;2023-07-29T12:30:09;97721.56;;;27.69;56.44
13767;BME280;47980;48.794;9.176;2023-07-29T12:32:44;97706.16;;;27.44;56.14
13767;BME280;47980;48.794;9.176;2023-07-29T12:35:16;97705.47;;;27.93;56.60
13767;BME280;47980;48.794;9.176;2023-07-29T12:37:59;97712.25;;;28.57;52.75
13767;BME280;47980;48.794;9.176;2023-07-29T12:40:31;97705.56;;;28.76;49.34
13767;BME280;47980;48.794;9.176;2023-07-29T12:43:02;97707.25;;;28.55;50.82
13767;BME280;47980;48.794;9.176;2023-07-29T12:45:35;97704.91;;;28.90;47.82
13767;BME280;47980;48.794;9.176;2023-07-29T12:48:10;97707.69;;;29.09;46.59
13767;BME280;47980;48.794;9.176;2023-07-29T12:50:42;97691.47;;;28.41;46.40
13767;BME280;47980;48.794;9.176;2023-07-29T12:53:15;97704.66;;;28.61;47.21
13767;BME280;47980;48.794;9.176;2023-07-29T12:55:46;97695.41;;;28.76;46.50
13767;BME280;47980;48.794;9.176;2023-07-29T12:58:18;97699.31;;;28.75;47.38
13767;BME280;47980;48.794;9.176;2023-07-29T13:00:49;97700.88;;;28.76;46.38
13767;BME280;47980;48.794;9.176;2023-07-29T13:03:20;97700.25;;;28.72;49.21
13767;BME280;47980;48.794;9.176;2023-07-29T13:05:52;97685.81;;;28.90;47.27
13767;BME280;47980;48.794;9.176;2023-07-29T13:08:25;97704.22;;;28.62;49.17
13767;BME280;47980;48.794;9.176;2023-07-29T13:10:56;97697.19;;;28.79;47.76
13767;BME280;47980;48.794;9.176;2023-07-29T13:13:28;97690.09;;;28.36;47.98
13767;BME280;47980;48.794;9.176;2023-07-29T13:16:00;97683.25;;;28.22;50.04
13767;BME280;47980;48.794;9.176;2023-07-29T13:18:32;97687.84;;;28.44;48.77
13767;BME280;47980;48.794;9.176;2023-07-29T13:21:03;97694.03;;;28.72;46.90